Time;durP1;ratioP1;P1;durP2;ratioP2;P2;SDS_P1;SDS_P2;PMS_P1;PMS_P2;Temp;Humidity;BMP_temperature;BMP_pressure;BME280_temperature;BME280_humidity;BME280_pressure;Samples;Min_cycle;Max_cycle;Signal;HPM_P1;HPM_P2
2022/06/28 00:00:55;;;;;;;6.47;3.00;;;;;;;19.31;100.00;100372.39;1700883;83;21075;-56
2022/06/28 00:03:22;;;;;;;6.33;2.73;;;;;;;19.33;100.00;100370.32;1699304;83;21138;-56
2022/06/28 00:05:50;;;;;;;8.13;3.00;;;;;;;19.33;100.00;100378.25;1709907;82;21163;-58
2022/06/28 00:08:18;;;;;;;5.53;2.63;;;;;;;19.26;100.00;100363.05;1698918;83;21836;-63
2022/06/28 00:10:45;;;;;;;7.90;2.90;;;;;;;19.14;100.00;100367.08;1708141;83;21012;-55
2022/06/28 00:13:13;;;;;;;7.80;2.77;;;;;;;19.11;100.00;100364.38;1698397;83;20984;-57
2022/06/28 00:18:19;;;;;;;6.17;2.93;;;;;;;19.02;100.00;100361.84;1675362;83;21241;-63
2022/06/28 00:20:45;;;;;;;4.60;2.47;;;;;;;18.96;100.00;100361.45;1706654;83;21134;-56
2022/06/28 00:23:13;;;;;;;5.47;2.80;;;;;;;18.93;100.00;100360.08;1707919;83;21000;-63
2022/06/28 00:25:40;;;;;;;6.37;2.30;;;;;;;18.91;100.00;100361.37;1699380;83;21051;-57
2022/06/28 00:28:07;;;;;;;6.03;2.60;;;;;;;18.53;100.00;100356.10;1708182;83;21819;-58
2022/06/28 00:30:35;;;;;;;5.87;2.70;;;;;;;18.59;100.00;100356.47;1695762;83;21799;-57
2022/06/28 00:33:03;;;;;;;5.47;2.80;;;;;;;18.66;100.00;100357.15;1707609;83;21008;-57
2022/06/28 00:35:31;;;;;;;5.40;2.70;;;;;;;18.67;100.00;100354.78;1694080;83;21006;-64
2022/06/28 00:37:58;;;;;;;4.30;2.13;;;;;;;18.62;100.00;100352.58;1705515;83;21242;-61
2022/06/28 00:40:25;;;;;;;5.23;2.40;;;;;;;18.55;100.00;100355.34;1716324;83;21003;-57
2022/06/28 00:42:52;;;;;;;6.83;2.87;;;;;;;18.51;100.00;100356.84;1701714;83;21433;-57
2022/06/28 00:45:20;;;;;;;6.10;2.63;;;;;;;18.47;100.00;100357.02;1706095;83;21634;-56
2022/06/28 00:47:48;;;;;;;8.40;2.60;;;;;;;18.43;100.00;100357.20;1712389;83;20861;-59
2022/06/28 00:50:16;;;;;;;4.97;2.73;;;;;;;18.42;100.00;100360.88;1693719;83;21205;-57
2022/06/28 00:53:14;;;;;;;6.13;2.97;;;;;;;18.33;100.00;100357.77;1700819;83;21939;-55
2022/06/28 00:55:43;;;;;;;8.13;2.60;;;;;;;18.34;100.00;100356.77;1720508;83;21230;-57
2022/06/28 00:58:10;;;;;;;7.17;3.27;;;;;;;18.32;100.00;100363.30;1702927;82;21508;-55
2022/06/28 01:00:41;;;;;;;5.50;3.30;;;;;;;18.19;100.00;100358.55;1703809;83;20965;-57
2022/06/28 01:03:11;;;;;;;5.37;2.97;;;;;;;18.16;100.00;100357.69;1698453;83;21063;-64
2022/06/28 01:05:39;;;;;;;7.33;2.90;;;;;;;18.04;100.00;100356.89;1693462;82;20973;-56
2022/06/28 01:08:07;;;;;;;7.23;3.30;;;;;;;17.92;100.00;100358.22;1720482;81;21461;-57
2022/06/28 01:10:36;;;;;;;7.07;3.50;;;;;;;17.80;100.00;100357.90;1728938;82;20900;-55
2022/06/28 01:13:03;;;;;;;4.70;2.63;;;;;;;17.71;100.00;100354.77;1723046;81;21021;-55
2022/06/28 01:15:31;;;;;;;7.37;3.57;;;;;;;17.68;100.00;100352.59;1714689;81;21062;-63
2022/06/28 01:18:04;;;;;;;7.10;3.03;;;;;;;17.64;100.00;100347.48;1713102;81;21534;-56
2022/06/28 01:20:36;;;;;;;6.37;3.07;;;;;;;17.67;100.00;100355.73;1708889;82;21151;-57
2022/06/28 01:23:05;;;;;;;7.47;3.73;;;;;;;17.65;100.00;100360.94;1709289;81;20881;-57
2022/06/28 01:25:32;;;;;;;8.10;3.33;;;;;;;17.64;100.00;100362.78;1680014;82;21955;-61
2022/06/28 01:28:01;;;;;;;8.37;3.50;;;;;;;17.68;100.00;100357.34;1723500;81;21109;-55
2022/06/28 01:30:29;;;;;;;7.47;3.50;;;;;;;17.68;100.00;100357.34;1710614;81;20998;-56
2022/06/28 01:32:58;;;;;;;7.30;4.00;;;;;;;17.59;100.00;100357.39;1718357;82;21285;-56
2022/06/28 01:35:25;;;;;;;10.27;3.70;;;;;;;17.47;100.00;100356.58;1718202;81;21068;-62
2022/06/28 01:37:52;;;;;;;7.47;4.60;;;;;;;17.17;100.00;100357.91;1715454;82;21620;-56
2022/06/28 01:40:20;;;;;;;7.60;4.40;;;;;;;17.20;100.00;100356.95;1720963;82;21838;-56
2022/06/28 01:42:47;;;;;;;7.77;4.20;;;;;;;17.31;100.00;100359.83;1716232;82;21021;-59
2022/06/28 01:45:14;;;;;;;8.43;4.57;;;;;;;17.32;100.00;100357.51;1715578;81;22394;-56
2022/06/28 01:47:44;;;;;;;7.27;4.10;;;;;;;17.37;100.00;100352.36;1715637;81;20886;-56
2022/06/28 01:50:24;;;;;;;7.97;4.20;;;;;;;17.55;100.00;100362.03;1721838;82;21553;-57
2022/06/28 01:52:51;;;;;;;7.93;4.13;;;;;;;17.66;100.00;100364.69;1718481;82;21093;-55
2022/06/28 01:55:36;;;;;;;11.13;4.67;;;;;;;17.70;100.00;100363.20;1707164;82;21345;-55
2022/06/28 01:58:06;;;;;;;8.70;4.20;;;;;;;17.82;100.00;100363.77;1715682;81;22445;-61
2022/06/28 02:00:35;;;;;;;7.93;4.80;;;;;;;18.04;100.00;100368.77;1726604;81;21057;-56
2022/06/28 02:03:03;;;;;;;8.20;3.60;;;;;;;18.36;100.00;100377.63;1711165;81;21057;-64
2022/06/28 02:05:49;;;;;;;6.20;3.23;;;;;;;18.86;100.00;100371.81;1724890;82;21510;-62
2022/06/28 02:08:18;;;;;;;6.03;2.97;;;;;;;19.41;100.00;100355.39;1698635;82;21572;-56
2022/06/28 02:10:48;;;;;;;4.83;2.60;;;;;;;19.98;100.00;100357.90;1707158;83;21267;-62
2022/06/28 02:13:15;;;;;;;6.40;3.70;;;;;;;20.55;100.00;100354.98;1697999;83;21640;-55
2022/06/28 02:15:43;;;;;;;6.43;2.53;;;;;;;21.17;100.00;100353.00;1705044;83;21047;-59
2022/06/28 02:18:11;;;;;;;5.53;2.90;;;;;;;21.84;100.00;100355.18;1697593;83;21482;-56
2022/06/28 02:20:39;;;;;;;5.10;2.63;;;;;;;22.40;100.00;100358.19;1701480;83;20956;-58
2022/06/28 02:23:06;;;;;;;4.40;2.60;;;;;;;22.99;100.00;100356.54;1709359;83;21470;-56
2022/06/28 02:25:34;;;;;;;6.70;3.60;;;;;;;23.58;100.00;100350.48;1698123;83;21498;-55
2022/06/28 02:28:01;;;;;;;7.57;3.27;;;;;;;24.21;100.00;100346.95;1708653;83;20881;-58
2022/06/28 02:30:28;;;;;;;9.57;3.50;;;;;;;24.78;100.00;100347.55;1706462;83;21451;-57
2022/06/28 02:32:56;;;;;;;8.27;3.17;;;;;;;25.45;93.49;100342.02;1707177;83;21384;-56
2022/06/28 02:40:54;;;;;;;4.87;3.10;;;;;;;27.31;69.18;100349.19;1707256;83;21608;-56
2022/06/28 02:43:22;;;;;;;5.20;3.70;;;;;;;27.96;63.87;100347.56;1702056;83;21005;-55
2022/06/28 02:45:49;;;;;;;5.35;4.03;;;;;;;28.60;60.46;100340.41;1708006;83;21502;-56
2022/06/28 02:48:16;;;;;;;7.78;3.55;;;;;;;29.29;56.74;100342.34;1710431;83;21505;-57
2022/06/28 02:50:44;;;;;;;6.87;3.35;;;;;;;29.77;53.65;100337.64;1705835;83;21099;-57
2022/06/28 02:53:11;;;;;;;6.75;3.60;;;;;;;30.38;51.42;100334.38;1702301;83;21115;-56
2022/06/28 02:55:38;;;;;;;6.12;3.58;;;;;;;30.93;48.77;100339.20;1705144;83;21118;-64
2022/06/28 02:58:06;;;;;;;5.62;3.47;;;;;;;31.56;45.78;100335.02;1700289;83;21550;-57
2022/06/28 03:00:33;;;;;;;4.92;3.50;;;;;;;32.02;44.35;100336.12;1704244;83;21258;-56
2022/06/28 03:03:00;;;;;;;5.12;3.80;;;;;;;32.40;43.08;100327.98;1699010;83;21025;-57
2022/06/28 03:05:27;;;;;;;6.83;3.30;;;;;;;32.78;41.72;100335.16;1718378;82;20984;-60
2022/06/28 03:07:54;;;;;;;6.50;3.22;;;;;;;33.05;40.95;100327.08;1709175;82;21482;-57
2022/06/28 03:10:25;;;;;;;8.53;3.22;;;;;;;33.50;40.04;100324.97;1709263;83;21069;-57
2022/06/28 03:12:52;;;;;;;6.80;3.20;;;;;;;33.76;38.69;100315.20;1702327;82;21169;-57
2022/06/28 03:15:20;;;;;;;4.67;3.62;;;;;;;33.84;37.77;100319.70;1701079;83;21016;-64
2022/06/28 03:17:47;;;;;;;5.00;3.60;;;;;;;33.88;37.80;100324.66;1701321;82;21000;-62
2022/06/28 03:20:15;;;;;;;6.78;3.05;;;;;;;34.12;37.29;100321.17;1698558;83;21594;-57
2022/06/28 03:22:42;;;;;;;4.47;2.75;;;;;;;34.38;36.99;100321.36;1709675;83;21380;-58
2022/06/28 03:25:09;;;;;;;5.55;3.35;;;;;;;34.55;36.35;100317.61;1701014;83;21218;-57
2022/06/28 03:27:37;;;;;;;6.05;3.30;;;;;;;34.75;36.04;100322.64;1705469;83;20937;-58
2022/06/28 03:30:05;;;;;;;5.25;2.90;;;;;;;34.97;35.53;100319.38;1699838;82;21318;-56
2022/06/28 03:32:32;;;;;;;9.73;3.30;;;;;;;35.17;34.81;100323.59;1702618;83;21060;-57
2022/06/28 03:35:02;;;;;;;4.47;2.77;;;;;;;35.27;34.65;100315.75;1699694;82;21431;-55
2022/06/28 03:37:30;;;;;;;3.90;2.65;;;;;;;35.47;34.56;100310.42;1706060;83;21244;-58
2022/06/28 03:39:59;;;;;;;4.78;3.00;;;;;;;35.79;34.07;100313.34;1709245;83;21425;-57
2022/06/28 03:42:26;;;;;;;5.97;3.47;;;;;;;35.86;33.71;100320.88;1705672;83;22003;-56
2022/06/28 03:44:54;;;;;;;6.10;3.55;;;;;;;35.93;33.51;100318.90;1717056;83;21001;-56
2022/06/28 03:47:23;;;;;;;5.20;3.40;;;;;;;36.12;33.05;100314.12;1717032;83;21478;-56
2022/06/28 03:50:09;;;;;;;7.67;3.75;;;;;;;36.17;32.80;100315.97;1708901;83;22055;-55
2022/06/28 03:52:37;;;;;;;;;;;;;;;36.03;32.59;100310.25;1658090;83;21488;-56
2022/06/28 03:55:08;;;;;;;5.50;3.30;;;;;;;35.95;32.95;100305.20;1708503;83;20428;-60
2022/06/28 03:57:47;;;;;;;5.97;3.30;;;;;;;36.08;33.08;100303.19;1700143;83;21079;-56
2022/06/28 04:00:15;;;;;;;5.37;3.37;;;;;;;36.48;30.29;100308.34;1704504;83;21051;-58
2022/06/28 04:02:43;;;;;;;9.08;3.95;;;;;;;36.18;30.19;100304.54;1706080;83;21947;-57
2022/06/28 04:05:12;;;;;;;5.85;3.20;;;;;;;36.00;30.35;100306.31;1701213;82;21087;-58
2022/06/28 04:07:41;;;;;;;6.67;3.58;;;;;;;36.06;30.45;100302.73;1668011;84;21104;-55
2022/06/28 04:10:09;;;;;;;6.15;4.15;;;;;;;36.12;30.25;100299.19;1688960;83;21017;-56
2022/06/28 04:12:36;;;;;;;8.30;4.10;;;;;;;36.11;29.65;100300.34;1679223;83;21116;-58
2022/06/28 04:15:06;;;;;;;6.65;3.47;;;;;;;35.87;29.73;100298.02;1690436;83;21266;-62
2022/06/28 04:17:34;;;;;;;6.42;3.42;;;;;;;35.85;30.36;100311.17;1688074;83;21462;-57
2022/06/28 04:20:21;;;;;;;6.33;3.40;;;;;;;35.85;29.84;100305.74;1629869;87;21515;-56
2022/06/28 04:22:50;;;;;;;;;;;;;;;35.78;29.73;100316.42;1611895;87;21083;-58
2022/06/28 04:25:18;;;;;;;8.70;4.72;;;;;;;35.60;29.76;100309.78;1639736;83;20343;-56
2022/06/28 04:27:47;;;;;;;6.97;4.05;;;;;;;35.29;30.32;100309.97;1688031;83;21202;-56
2022/06/28 04:30:14;;;;;;;7.30;4.30;;;;;;;35.02;30.52;100311.59;1688291;83;20981;-56
2022/06/28 04:32:49;;;;;;;6.03;3.83;;;;;;;34.66;31.16;100311.94;1688052;83;21449;-63
2022/06/28 04:35:18;;;;;;;5.97;3.60;;;;;;;34.53;31.88;100312.55;1688196;83;21069;-58
2022/06/28 04:37:45;;;;;;;6.67;3.80;;;;;;;34.52;31.53;100318.31;1688286;83;21518;-56
2022/06/28 04:40:23;;;;;;;6.47;3.90;;;;;;;34.69;31.49;100319.94;1685048;83;22386;-56
2022/06/28 04:42:52;;;;;;;8.93;4.08;;;;;;;34.54;30.97;100310.06;1688890;82;21096;-63
2022/06/28 04:45:21;;;;;;;6.87;4.20;;;;;;;34.53;31.04;100310.41;1687999;83;21123;-56
2022/06/28 04:47:50;;;;;;;10.50;4.65;;;;;;;34.46;31.04;100315.02;1690433;82;21061;-56
2022/06/28 04:50:18;;;;;;;7.05;4.25;;;;;;;34.42;31.11;100308.72;1687861;83;20946;-58
2022/06/28 04:52:46;;;;;;;7.47;4.47;;;;;;;34.35;31.79;100308.50;1687484;83;22029;-63
2022/06/28 04:55:13;;;;;;;6.65;4.30;;;;;;;34.50;31.33;100314.59;1688085;83;20943;-55
2022/06/28 04:57:42;;;;;;;8.48;4.72;;;;;;;34.70;31.43;100312.03;1688043;82;21062;-56
2022/06/28 05:00:15;;;;;;;7.83;4.42;;;;;;;35.02;31.62;100316.45;1688103;83;20993;-56
2022/06/28 05:02:43;;;;;;;;;;;;;;;35.51;30.93;100310.75;1690479;82;21499;-62
2022/06/28 05:05:12;;;;;;;8.68;4.45;;;;;;;35.87;29.83;100314.87;1686886;82;21136;-56
2022/06/28 05:07:41;;;;;;;7.87;4.45;;;;;;;35.98;30.18;100311.29;1724114;82;20989;-55
2022/06/28 05:10:10;;;;;;;11.75;4.85;;;;;;;36.18;29.27;100311.33;1728133;81;21548;-57
2022/06/28 05:12:39;;;;;;;6.80;4.42;;;;;;;36.07;29.48;100317.90;1726684;81;21299;-57
2022/06/28 05:15:08;;;;;;;10.13;4.67;;;;;;;36.06;29.40;100313.59;1725783;81;21002;-58
2022/06/28 05:17:37;;;;;;;6.60;4.33;;;;;;;35.99;29.30;100314.24;1703098;81;21116;-56
2022/06/28 05:20:06;;;;;;;7.72;4.83;;;;;;;35.88;30.03;100309.66;1715266;81;21010;-55
2022/06/28 05:22:34;;;;;;;7.90;5.13;;;;;;;36.04;29.65;100303.67;1722390;81;20994;-62
2022/06/28 05:25:20;;;;;;;11.03;5.72;;;;;;;36.41;28.89;100305.45;1724808;81;21120;-56
2022/06/28 05:27:48;;;;;;;8.53;4.65;;;;;;;36.73;28.06;100298.53;1723611;81;21474;-62
2022/06/28 05:30:15;;;;;;;9.43;5.37;;;;;;;36.78;28.22;100300.94;1709321;82;21652;-59
2022/06/28 05:32:42;;;;;;;9.25;5.35;;;;;;;36.77;28.05;100295.30;1726444;82;21042;-57
2022/06/28 05:35:09;;;;;;;7.35;5.33;;;;;;;36.95;28.36;100300.53;1723004;81;21509;-58
2022/06/28 05:38:16;;;;;;;9.15;5.22;;;;;;;36.98;28.34;100297.67;1806967;78;22607;-56
2022/06/28 05:40:45;;;;;;;8.85;5.28;;;;;;;37.22;27.62;100304.11;1773042;79;20939;-55
2022/06/28 05:43:12;;;;;;;10.20;5.83;;;;;;;37.20;27.27;100298.27;1780174;79;21794;-61
2022/06/28 05:45:39;;;;;;;7.45;5.62;;;;;;;37.23;27.46;100296.73;1762684;80;21816;-55
2022/06/28 05:48:07;;;;;;;10.08;6.15;;;;;;;37.40;27.91;100296.84;1782943;79;21953;-56
2022/06/28 05:50:34;;;;;;;7.78;5.28;;;;;;;37.66;27.32;100294.75;1777748;79;20923;-57
2022/06/28 05:53:01;;;;;;;8.13;5.37;;;;;;;37.89;27.25;100295.51;1773817;79;21485;-57
2022/06/28 05:55:30;;;;;;;9.05;5.87;;;;;;;38.40;27.46;100296.38;1785501;79;22035;-57
2022/06/28 05:57:57;;;;;;;10.00;6.00;;;;;;;38.88;26.40;100298.51;1770633;80;21000;-55
2022/06/28 06:00:25;;;;;;;9.50;6.17;;;;;;;38.90;26.03;100298.90;1763972;79;21242;-56
2022/06/28 06:02:52;;;;;;;9.93;6.28;;;;;;;38.57;25.95;100299.13;1778860;80;21522;-62
2022/06/28 06:05:20;;;;;;;8.13;5.08;;;;;;;38.37;26.09;100296.34;1767131;79;21093;-58
2022/06/28 06:07:47;;;;;;;8.00;5.20;;;;;;;38.40;26.30;100301.83;1767399;80;21342;-61
2022/06/28 06:10:14;;;;;;;9.00;5.45;;;;;;;38.24;25.82;100294.99;1766478;79;21087;-57
2022/06/28 06:15:07;;;;;;;5.85;4.62;;;;;;;38.15;25.58;100285.72;1802332;78;22066;-56
2022/06/28 06:17:34;;;;;;;8.00;4.28;;;;;;;38.13;25.26;100293.48;1777176;79;20996;-56
2022/06/28 06:20:02;;;;;;;5.67;3.80;;;;;;;38.02;25.69;100290.62;1759107;79;21146;-58
2022/06/28 06:22:30;;;;;;;8.13;4.85;;;;;;;37.94;24.96;100294.40;1772385;79;20954;-57
2022/06/28 06:24:59;;;;;;;9.10;4.40;;;;;;;37.80;26.09;100288.14;1766389;79;21852;-58
2022/06/28 06:27:31;;;;;;;7.33;4.35;;;;;;;38.12;26.10;100285.91;1761968;80;21034;-57
2022/06/28 06:30:01;;;;;;;8.10;5.00;;;;;;;38.38;25.24;100289.18;1754811;79;20995;-57
2022/06/28 06:32:30;;;;;;;;;;;;;;;38.42;24.69;100290.59;1770671;80;21278;-59
2022/06/28 06:35:16;;;;;;;7.65;4.78;;;;;;;38.43;25.72;100289.42;1758578;80;20505;-57
2022/06/28 06:37:44;;;;;;;12.45;5.72;;;;;;;38.52;25.32;100288.55;1764867;80;20983;-57
2022/06/28 06:40:12;;;;;;;9.13;5.47;;;;;;;38.63;25.14;100290.81;1781777;79;21069;-64
2022/06/28 06:42:39;;;;;;;6.85;4.55;;;;;;;38.34;25.35;100287.55;1766112;80;21559;-58
2022/06/28 06:45:07;;;;;;;7.97;5.10;;;;;;;38.51;25.21;100284.26;1753637;79;22180;-56
2022/06/28 06:47:34;;;;;;;5.92;4.22;;;;;;;38.81;24.36;100277.41;1760669;80;20924;-58
2022/06/28 06:50:08;;;;;;;7.62;4.03;;;;;;;39.01;24.83;100279.93;1777823;80;21517;-64
2022/06/28 06:52:32;;;;;;;5.75;3.17;;;;;;;39.12;24.16;100279.45;1761016;80;20987;-61
2022/06/28 06:54:59;;;;;;;6.72;3.92;;;;;;;38.92;23.49;100285.11;1758349;79;22384;-58
2022/06/28 06:57:27;;;;;;;5.97;3.85;;;;;;;38.75;23.43;100281.59;1770596;79;21417;-57
2022/06/28 06:59:55;;;;;;;6.15;3.10;;;;;;;38.56;23.51;100277.69;1767729;80;20983;-64
2022/06/28 07:02:24;;;;;;;5.50;3.72;;;;;;;38.66;23.80;100279.17;1755526;80;21029;-56
2022/06/28 07:04:54;;;;;;;6.12;3.27;;;;;;;38.62;23.40;100274.27;1783018;80;21012;-61
2022/06/28 07:07:22;;;;;;;5.85;3.12;;;;;;;38.19;23.63;100268.30;1783681;79;21072;-57
2022/06/28 07:09:51;;;;;;;6.25;3.05;;;;;;;37.79;23.73;100275.69;1768937;80;21157;-58
2022/06/28 07:12:20;;;;;;;5.33;3.00;;;;;;;37.59;24.24;100277.74;1774766;79;21566;-57
2022/06/28 07:14:47;;;;;;;5.85;3.47;;;;;;;37.57;23.99;100268.37;1761655;80;21031;-63
2022/06/28 07:17:16;;;;;;;6.10;3.67;;;;;;;37.83;24.26;100270.30;1739801;80;21126;-57
2022/06/28 07:19:44;;;;;;;6.83;2.85;;;;;;;38.01;23.95;100264.56;1753737;80;21050;-57
2022/06/28 07:22:11;;;;;;;6.20;3.30;;;;;;;37.65;24.01;100271.40;1761737;80;21282;-57
2022/06/28 07:24:40;;;;;;;3.98;2.70;;;;;;;37.59;24.67;100266.08;1764425;80;21368;-56
2022/06/28 07:27:08;;;;;;;5.00;2.62;;;;;;;37.81;23.75;100265.24;1756935;79;21066;-56
2022/06/28 07:29:36;;;;;;;5.12;3.67;;;;;;;37.90;23.48;100263.63;1770571;80;21110;-56
2022/06/28 07:32:05;;;;;;;4.67;2.80;;;;;;;37.64;23.70;100263.04;1753671;80;20900;-58
2022/06/28 07:34:32;;;;;;;7.58;3.15;;;;;;;37.57;23.78;100256.91;1761984;80;21112;-63
2022/06/28 07:37:02;;;;;;;4.75;3.47;;;;;;;37.69;24.15;100251.83;1764922;80;20888;-60
2022/06/28 07:39:29;;;;;;;4.45;2.80;;;;;;;38.12;23.87;100252.45;1760449;80;20941;-56
2022/06/28 07:42:05;;;;;;;4.08;2.55;;;;;;;38.54;23.25;100250.05;1746730;80;21076;-56
2022/06/28 07:44:35;;;;;;;4.55;3.05;;;;;;;38.93;22.51;100247.16;1755229;80;21107;-58
2022/06/28 07:47:02;;;;;;;5.80;2.75;;;;;;;39.38;22.10;100238.98;1746346;80;21899;-59
2022/06/28 07:52:34;;;;;;;4.62;3.02;;;;;;;39.92;22.02;100242.83;1756634;79;21561;-57
2022/06/28 07:55:06;;;;;;;5.53;3.02;;;;;;;40.02;21.37;100234.50;1753576;80;21000;-59
2022/06/28 07:57:35;;;;;;;5.33;3.22;;;;;;;39.97;22.02;100233.48;1751580;80;21074;-55
2022/06/28 08:00:05;;;;;;;5.35;3.67;;;;;;;39.90;22.11;100238.34;1729986;80;21243;-57
2022/06/28 08:02:34;;;;;;;4.00;2.80;;;;;;;39.89;22.35;100228.02;1746177;80;21910;-57
2022/06/28 08:05:03;;;;;;;4.22;2.70;;;;;;;40.11;21.58;100230.23;1739433;80;21046;-62
2022/06/28 08:07:31;;;;;;;3.90;2.25;;;;;;;40.33;21.99;100224.28;1759072;80;21098;-56
2022/06/28 08:09:59;;;;;;;6.00;2.40;;;;;;;40.43;22.34;100222.77;1740599;80;21533;-57
2022/06/28 08:12:27;;;;;;;10.40;3.77;;;;;;;40.23;20.79;100218.79;1757699;80;22309;-56
2022/06/28 08:14:56;;;;;;;3.92;2.33;;;;;;;40.13;21.46;100218.97;1761154;80;21009;-56
2022/06/28 08:17:24;;;;;;;2.45;1.32;;;;;;;40.16;21.65;100225.59;1750558;80;21024;-56
2022/06/28 08:19:52;;;;;;;3.60;1.90;;;;;;;40.10;20.92;100219.70;1759344;80;21037;-57
2022/06/28 08:22:19;;;;;;;3.60;1.67;;;;;;;40.25;21.06;100219.98;1767838;80;21116;-56
2022/06/28 08:24:46;;;;;;;4.00;1.80;;;;;;;40.23;20.92;100210.01;1760896;80;21143;-55
2022/06/28 08:27:13;;;;;;;3.40;2.75;;;;;;;40.03;20.35;100212.27;1755719;80;20924;-63
2022/06/28 08:29:42;;;;;;;3.92;2.37;;;;;;;39.81;21.79;100209.23;1769706;80;21245;-56
2022/06/28 08:32:10;;;;;;;3.08;1.70;;;;;;;40.06;21.06;100209.35;1754777;80;21849;-55
2022/06/28 08:34:38;;;;;;;2.65;1.80;;;;;;;40.07;20.74;100209.55;1770581;79;21159;-56
2022/06/28 08:37:06;;;;;;;2.62;1.52;;;;;;;39.78;20.53;100205.34;1757200;80;21278;-56
2022/06/28 08:39:34;;;;;;;3.42;1.60;;;;;;;39.10;21.29;100202.14;1748158;80;21031;-57
2022/06/28 08:42:04;;;;;;;7.22;5.00;;;;;;;38.77;22.42;100203.58;1755897;80;21054;-59
2022/06/28 08:44:34;;;;;;;9.55;6.12;;;;;;;38.68;21.72;100196.50;1756066;80;22018;-58
2022/06/28 08:47:01;;;;;;;5.05;3.70;;;;;;;38.60;21.96;100196.79;1770191;80;20979;-58
2022/06/28 08:49:45;;;;;;;4.90;2.67;;;;;;;38.65;22.75;100196.47;1752456;80;21100;-56
2022/06/28 08:52:13;;;;;;;5.55;2.40;;;;;;;38.83;20.95;100194.72;1756147;80;21254;-56
2022/06/28 08:54:41;;;;;;;3.80;1.90;;;;;;;39.24;21.54;100194.66;1739700;80;20941;-55
2022/06/28 08:57:08;;;;;;;3.47;1.47;;;;;;;39.50;21.60;100194.23;1742134;80;20976;-63
2022/06/28 08:59:36;;;;;;;2.85;1.15;;;;;;;39.62;21.39;100198.78;1740203;80;21102;-56
2022/06/28 09:02:06;;;;;;;3.10;1.67;;;;;;;39.67;21.08;100188.11;1740715;80;21726;-56
2022/06/28 09:23:26;;;;;;;3.45;1.50;;;;;;;36.99;23.25;100149.79;1784423;78;28636;-57
2022/06/28 09:25:57;;;;;;;3.83;1.55;;;;;;;37.53;24.06;100143.22;1749754;81;20959;-55
2022/06/28 09:28:28;;;;;;;;;;;;;;;37.79;24.13;100138.30;1739777;80;21756;-55
2022/06/28 09:31:21;;;;;;;2.72;1.92;;;;;;;37.69;23.15;100136.23;1744970;80;20593;-56
2022/06/28 09:34:04;;;;;;;2.87;2.47;;;;;;;37.44;23.58;100141.36;1741577;80;20939;-57
2022/06/28 09:39:42;;;;;;;3.52;2.25;;;;;;;36.93;25.06;100123.45;1787462;78;28100;-57
2022/06/28 09:42:12;;;;;;;3.50;1.82;;;;;;;37.07;24.41;100133.02;1668507;81;21040;-60
2022/06/28 09:44:39;;;;;;;4.35;2.10;;;;;;;36.73;24.97;100126.83;1735447;80;21576;-59
2022/06/28 09:47:06;;;;;;;2.80;2.00;;;;;;;36.52;25.16;100129.98;1728643;81;21787;-58
2022/06/28 09:49:35;;;;;;;2.42;1.70;;;;;;;36.29;25.12;100128.58;1743001;81;20965;-57
2022/06/28 09:52:04;;;;;;;3.75;2.50;;;;;;;36.17;25.83;100125.22;1684234;81;21125;-58
2022/06/28 09:54:31;;;;;;;3.15;2.30;;;;;;;36.15;26.00;100131.59;1735109;80;21125;-64
2022/06/28 09:56:58;;;;;;;4.25;2.22;;;;;;;36.05;26.59;100117.45;1741106;80;21214;-57
2022/06/28 09:59:27;;;;;;;3.37;2.17;;;;;;;36.16;27.47;100125.02;1732723;81;20981;-57
2022/06/28 10:01:55;;;;;;;5.42;4.00;;;;;;;36.32;26.51;100118.13;1731718;80;20926;-57
2022/06/28 10:04:23;;;;;;;7.50;4.67;;;;;;;36.34;27.23;100122.06;1725854;81;20976;-66
2022/06/28 10:06:51;;;;;;;7.55;6.00;;;;;;;36.36;26.01;100112.97;1735482;80;21811;-59
2022/06/28 10:09:20;;;;;;;9.98;8.63;;;;;;;36.34;26.69;100118.00;1740230;80;22040;-56
2022/06/28 10:18:02;;;;;;;10.78;6.78;;;;;;;37.14;26.36;100101.30;1746190;80;20983;-57
2022/06/28 10:20:35;;;;;;;10.60;9.48;;;;;;;37.65;26.07;100098.68;1742842;80;21075;-57
2022/06/28 10:23:25;;;;;;;13.50;10.88;;;;;;;38.26;25.43;100097.42;1749798;80;21237;-65
2022/06/28 10:26:12;;;;;;;13.32;10.93;;;;;;;38.37;25.41;100102.42;1744633;80;21122;-57
2022/06/28 10:28:46;;;;;;;14.58;12.85;;;;;;;38.52;25.22;100101.19;1732140;81;21247;-59
2022/06/28 10:31:31;;;;;;;14.03;12.63;;;;;;;38.54;24.98;100093.44;1734749;81;21497;-57
2022/06/28 10:34:01;;;;;;;13.43;11.70;;;;;;;38.57;24.87;100096.78;1731784;80;22267;-57
2022/06/28 10:36:33;;;;;;;14.80;13.10;;;;;;;38.89;24.94;100082.83;1738045;81;21142;-66
2022/06/28 10:39:11;;;;;;;14.55;12.15;;;;;;;39.10;25.44;100087.64;1729402;80;21506;-59
2022/06/28 10:41:51;;;;;;;17.45;15.55;;;;;;;38.99;25.57;100086.02;1725062;82;21063;-56
2022/06/28 10:44:21;;;;;;;18.10;16.00;;;;;;;38.97;25.76;100080.16;1728858;80;21000;-64
2022/06/28 10:47:07;;;;;;;18.27;16.27;;;;;;;38.75;25.65;100084.64;1716234;81;21086;-58
2022/06/28 10:50:00;;;;;;;16.27;14.68;;;;;;;38.74;25.49;100079.00;1729551;80;21152;-60
2022/06/28 10:52:34;;;;;;;14.43;12.85;;;;;;;38.85;25.57;100077.16;1732113;80;21031;-57
2022/06/28 10:55:18;;;;;;;13.55;11.48;;;;;;;39.27;25.62;100086.20;1725108;80;21066;-57
2022/06/28 10:57:45;;;;;;;16.32;14.63;;;;;;;39.15;24.46;100067.41;1717127;82;21120;-57
2022/06/28 11:00:23;;;;;;;16.57;14.65;;;;;;;38.66;25.01;100084.39;1733950;80;20971;-57
2022/06/28 11:02:56;;;;;;;16.52;14.85;;;;;;;38.43;25.02;100080.51;1729564;80;21326;-57
2022/06/28 11:05:50;;;;;;;17.40;14.83;;;;;;;38.26;25.06;100086.53;1721995;82;21042;-58
2022/06/28 11:08:47;;;;;;;10.90;9.10;;;;;;;38.29;25.73;100091.81;1742144;80;26501;-57
2022/06/28 11:11:14;;;;;;;9.85;7.92;;;;;;;38.12;25.99;100086.42;1688158;84;21379;-57
2022/06/28 11:13:42;;;;;;;10.25;7.92;;;;;;;38.04;26.12;100091.01;1695528;83;20996;-58
2022/06/28 11:16:15;;;;;;;14.90;10.68;;;;;;;38.06;26.55;100083.82;1687955;84;20928;-57
2022/06/28 11:18:42;;;;;;;13.75;12.25;;;;;;;38.28;26.45;100083.45;1712244;82;21512;-59
2022/06/28 11:21:09;;;;;;;13.53;11.30;;;;;;;38.51;26.25;100083.30;1709467;82;20979;-57
2022/06/28 11:23:36;;;;;;;16.25;14.43;;;;;;;38.67;25.05;100085.16;1721518;82;21065;-57
2022/06/28 11:29:00;;;;;;;8.65;7.28;;;;;;;38.51;26.02;100081.34;1721458;80;21869;-57
2022/06/28 11:31:29;;;;;;;18.42;16.62;;;;;;;38.43;26.10;100069.62;1729450;80;21034;-57
2022/06/28 11:33:57;;;;;;;15.18;13.62;;;;;;;38.52;25.52;100073.38;1723421;80;21574;-61
2022/06/28 11:36:30;;;;;;;12.03;10.75;;;;;;;38.37;26.15;100070.33;1719099;82;21058;-57
2022/06/28 11:39:04;;;;;;;12.13;10.93;;;;;;;38.18;25.99;100070.71;1733127;80;20954;-57
2022/06/28 11:41:31;;;;;;;12.30;11.10;;;;;;;37.88;26.83;100072.16;1754471;80;21180;-57
2022/06/28 11:44:00;;;;;;;10.82;9.15;;;;;;;37.67;26.56;100069.19;1753747;80;20932;-65
2022/06/28 11:46:27;;;;;;;8.48;7.58;;;;;;;37.42;27.37;100060.72;1737326;81;21541;-57
2022/06/28 11:48:55;;;;;;;8.73;7.20;;;;;;;37.24;27.72;100058.54;1748189;80;20976;-57
2022/06/28 11:51:28;;;;;;;9.35;6.58;;;;;;;37.23;28.69;100049.38;1733680;80;21572;-57
2022/06/28 11:53:59;;;;;;;8.38;5.70;;;;;;;37.20;27.84;100043.31;1717523;82;21053;-57
2022/06/28 11:56:30;;;;;;;7.90;7.10;;;;;;;36.99;28.50;100051.39;1677514;84;21000;-57
2022/06/28 11:58:57;;;;;;;5.85;4.75;;;;;;;36.76;28.39;100058.20;1667175;84;20973;-57
2022/06/28 12:01:26;;;;;;;9.68;6.50;;;;;;;36.65;28.55;100048.33;1686013;84;21063;-64
2022/06/28 12:03:59;;;;;;;9.55;7.92;;;;;;;36.65;28.81;100039.61;1681990;84;21083;-58
2022/06/28 12:06:31;;;;;;;7.28;5.35;;;;;;;36.73;29.09;100043.99;1675626;84;21074;-59
2022/06/28 12:09:06;;;;;;;6.72;5.97;;;;;;;36.72;28.78;100036.22;1693513;84;20985;-55
2022/06/28 12:11:44;;;;;;;12.15;10.85;;;;;;;36.57;28.69;100039.87;1676069;84;20916;-57
2022/06/28 12:14:14;;;;;;;8.58;7.67;;;;;;;36.58;29.50;100038.71;1678907;84;20999;-56
2022/06/28 12:16:56;;;;;;;7.75;6.92;;;;;;;36.79;28.89;100041.77;1680395;84;21058;-57
2022/06/28 12:19:29;;;;;;;6.35;5.42;;;;;;;36.85;29.27;100040.86;1680332;84;21696;-57